Time;durP1;ratioP1;P1;durP2;ratioP2;P2;SDS_P1;SDS_P2;PMS_P1;PMS_P2;Temp;Humidity;BMP_temperature;BMP_pressure;BME280_temperature;BME280_humidity;BME280_pressure;Samples;Min_cycle;Max_cycle;Signal;HPM_P1;HPM_P2
2021/09/07 00:01:51;;;;;;;;;;;;;;;22.62;67.50;100025.19;5040636;28;19967;-70
2021/09/07 00:04:18;;;;;;;;;;;;;;;22.76;66.83;100020.97;5039060;28;19921;-68
2021/09/07 00:06:45;;;;;;;;;;;;;;;22.75;67.26;100025.84;5041524;28;19968;-67
2021/09/07 00:09:11;;;;;;;;;;;;;;;22.76;67.26;100024.66;5039786;28;19963;-69
2021/09/07 00:11:38;;;;;;;;;;;;;;;22.82;66.92;100028.84;5040859;28;20019;-72
2021/09/07 00:14:05;;;;;;;;;;;;;;;22.82;66.90;100026.00;5032254;28;19968;-72
2021/09/07 00:16:31;;;;;;;;;;;;;;;22.79;67.33;100011.69;5036726;28;19967;-71
2021/09/07 00:18:58;;;;;;;;;;;;;;;22.75;67.58;100017.31;5047407;28;19960;-70
2021/09/07 00:21:40;;;;;;;;;;;;;;;22.69;67.47;100013.94;5041365;28;19928;-67
2021/09/07 00:24:07;;;;;;;;;;;;;;;22.81;66.94;100006.47;5049038;28;20078;-67
2021/09/07 00:26:34;;;;;;;;;;;;;;;22.89;66.56;99994.00;5044707;28;20020;-65
2021/09/07 00:29:00;;;;;;;;;;;;;;;22.97;66.25;99989.28;5046313;28;19928;-64
2021/09/07 00:31:27;;;;;;;;;;;;;;;22.97;66.14;99994.97;5041708;28;20019;-64
2021/09/07 00:33:54;;;;;;;;;;;;;;;23.01;65.85;99990.16;5039518;28;19928;-64
2021/09/07 00:36:20;;;;;;;;;;;;;;;23.00;65.81;99988.53;5044468;28;20357;-64
2021/09/07 00:38:47;;;;;;;;;;;;;;;23.01;65.67;99984.47;5033731;28;19960;-64
2021/09/07 00:41:14;;;;;;;;;;;;;;;22.99;65.65;99995.44;5033676;28;19963;-64
2021/09/07 00:43:41;;;;;;;;;;;;;;;23.02;65.54;99983.28;5032507;28;19960;-65
2021/09/07 00:46:07;;;;;;;;;;;;;;;23.04;65.45;99975.16;5042014;28;20024;-64
2021/09/07 00:48:34;;;;;;;;;;;;;;;23.06;65.56;99976.44;5037529;28;19971;-65
2021/09/07 00:51:01;;;;;;;;;;;;;;;23.07;65.45;99961.00;5040186;28;20012;-65
2021/09/07 00:53:28;;;;;;;;;;;;;;;22.97;66.28;99957.97;5040397;28;19971;-65
2021/09/07 00:55:57;;;;;;;;;;;;;;;22.88;66.40;99953.31;5047883;28;20015;-69
2021/09/07 00:58:26;;;;;;;;;;;;;;;22.78;67.21;99953.94;5041613;28;20007;-70
2021/09/07 01:00:53;;;;;;;;;;;;;;;22.68;67.54;99946.03;5041687;28;19959;-70
2021/09/07 01:03:20;;;;;;;;;;;;;;;22.60;67.90;99938.56;5037601;28;19967;-66
2021/09/07 01:05:47;;;;;;;;;;;;;;;22.54;68.47;99937.22;5040672;28;19963;-66
2021/09/07 01:08:14;;;;;;;;;;;;;;;22.50;68.38;99942.00;5038628;28;20011;-64
2021/09/07 01:10:41;;;;;;;;;;;;;;;22.49;68.40;99929.78;5046956;28;19928;-65
2021/09/07 01:13:08;;;;;;;;;;;;;;;22.38;68.99;99926.72;5038561;28;19979;-64
2021/09/07 01:15:35;;;;;;;;;;;;;;;22.39;69.13;99924.72;5040744;28;20028;-65
2021/09/07 01:18:02;;;;;;;;;;;;;;;22.27;69.68;99927.72;5037610;28;19975;-65
2021/09/07 01:20:28;;;;;;;;;;;;;;;22.31;69.73;99932.28;5034434;28;19975;-77
2021/09/07 01:22:55;;;;;;;;;;;;;;;22.24;69.85;99932.13;5038317;28;20016;-70
2021/09/07 01:25:22;;;;;;;;;;;;;;;22.26;69.81;99938.28;5051890;28;20464;-69
2021/09/07 01:27:49;;;;;;;;;;;;;;;22.29;69.74;99931.84;5041445;28;19956;-69
2021/09/07 01:30:17;;;;;;;;;;;;;;;22.28;69.58;99926.53;5038700;28;19928;-70
2021/09/07 01:32:44;;;;;;;;;;;;;;;22.30;69.58;99921.28;5042094;28;20337;-68
2021/09/07 01:35:10;;;;;;;;;;;;;;;22.33;69.41;99932.75;5037228;28;20412;-69
2021/09/07 01:37:40;;;;;;;;;;;;;;;22.34;69.63;99922.19;5039573;28;20011;-70
2021/09/07 01:40:07;;;;;;;;;;;;;;;22.35;69.53;99929.50;5040923;28;20020;-72
2021/09/07 01:42:34;;;;;;;;;;;;;;;22.37;69.50;99927.94;5041428;28;20019;-73
2021/09/07 01:45:01;;;;;;;;;;;;;;;22.37;69.59;99930.78;5036502;28;20004;-65
2021/09/07 01:47:27;;;;;;;;;;;;;;;22.43;69.37;99926.44;5040730;28;20340;-64
2021/09/07 01:49:54;;;;;;;;;;;;;;;22.50;68.94;99924.94;5043958;28;20007;-64
2021/09/07 01:52:21;;;;;;;;;;;;;;;22.50;69.10;99924.94;5036533;28;19967;-64
2021/09/07 01:54:48;;;;;;;;;;;;;;;22.59;68.38;99920.63;5038596;28;20020;-64
2021/09/07 01:57:15;;;;;;;;;;;;;;;22.59;68.61;99917.78;5041948;28;19928;-67
2021/09/07 01:59:42;;;;;;;;;;;;;;;22.47;68.91;99920.81;5042523;28;20008;-67
2021/09/07 02:02:08;;;;;;;;;;;;;;;22.55;68.40;99913.25;5043904;28;19966;-64
2021/09/07 02:04:35;;;;;;;;;;;;;;;22.68;68.05;99924.06;5051597;28;20380;-64
2021/09/07 02:07:02;;;;;;;;;;;;;;;22.72;67.86;99915.59;5037227;28;20015;-63
2021/09/07 02:09:29;;;;;;;;;;;;;;;22.79;67.83;99921.41;5036268;28;19921;-63
2021/09/07 02:11:56;;;;;;;;;;;;;;;22.73;67.80;99917.22;5039813;28;19921;-62
2021/09/07 02:14:22;;;;;;;;;;;;;;;22.66;67.91;99911.41;5032685;28;19925;-66
2021/09/07 02:16:49;;;;;;;;;;;;;;;22.58;68.14;99910.47;5030455;28;20031;-66
2021/09/07 02:19:16;;;;;;;;;;;;;;;22.47;68.54;99913.09;5032951;28;20265;-67
2021/09/07 02:21:42;;;;;;;;;;;;;;;22.59;68.09;99908.44;5034252;28;20007;-66
2021/09/07 02:24:09;;;;;;;;;;;;;;;22.69;67.70;99919.19;5040453;28;20012;-65
2021/09/07 02:26:36;;;;;;;;;;;;;;;22.68;67.51;99921.22;5041881;28;19921;-65
2021/09/07 02:29:03;;;;;;;;;;;;;;;22.56;67.78;99929.09;5040338;28;20400;-65
2021/09/07 02:31:29;;;;;;;;;;;;;;;22.55;67.58;99927.47;5031457;28;20011;-65
2021/09/07 02:33:56;;;;;;;;;;;;;;;22.49;67.84;99929.78;5031786;28;19928;-72
2021/09/07 02:36:24;;;;;;;;;;;;;;;22.48;67.71;99931.81;5038327;28;19963;-69
2021/09/07 02:38:50;;;;;;;;;;;;;;;22.48;68.00;99926.13;5040368;28;19964;-70
2021/09/07 02:41:17;;;;;;;;;;;;;;;22.57;67.83;99925.09;5040989;28;20019;-69
2021/09/07 02:43:44;;;;;;;;;;;;;;;22.42;67.87;99927.63;5039623;28;19959;-70
2021/09/07 02:46:11;;;;;;;;;;;;;;;22.23;68.40;99924.81;5037347;28;20325;-73
2021/09/07 02:48:37;;;;;;;;;;;;;;;22.08;69.04;99923.63;5031799;28;19925;-67
2021/09/07 02:51:04;;;;;;;;;;;;;;;21.87;69.85;99926.84;5030914;28;19952;-67
2021/09/07 02:53:31;;;;;;;;;;;;;;;21.83;69.57;99931.63;5031840;28;20019;-68
2021/09/07 02:55:57;;;;;;;;;;;;;;;21.75;69.69;99930.66;5038752;28;20050;-63
2021/09/07 02:58:24;;;;;;;;;;;;;;;21.69;70.05;99932.13;5034370;28;20046;-66
2021/09/07 03:00:51;;;;;;;;;;;;;;;21.69;70.02;99922.78;5029482;28;19952;-63
2021/09/07 03:03:18;;;;;;;;;;;;;;;21.71;69.94;99920.41;5030180;28;19931;-63
2021/09/07 03:05:45;;;;;;;;;;;;;;;21.65;70.60;99928.38;5049803;28;19989;-63
2021/09/07 03:08:11;;;;;;;;;;;;;;;21.70;70.14;99924.44;5039235;28;20015;-66
2021/09/07 03:10:38;;;;;;;;;;;;;;;21.61;70.91;99918.97;5033584;28;20352;-70
2021/09/07 03:13:06;;;;;;;;;;;;;;;21.58;71.38;99918.88;5041024;28;20439;-67
2021/09/07 03:15:33;;;;;;;;;;;;;;;21.52;72.16;99918.34;5039378;28;20731;-65
2021/09/07 03:17:59;;;;;;;;;;;;;;;21.48;72.41;99926.78;5030529;28;19921;-64
2021/09/07 03:20:26;;;;;;;;;;;;;;;21.43;72.90;99920.53;5031329;28;19971;-67
2021/09/07 03:22:53;;;;;;;;;;;;;;;21.39;73.46;99928.16;5067542;28;19968;-67
2021/09/07 03:25:20;;;;;;;;;;;;;;;21.44;73.55;99922.22;5051606;28;20007;-65
2021/09/07 03:27:46;;;;;;;;;;;;;;;21.35;74.50;99918.75;5049478;28;20071;-65
2021/09/07 03:30:13;;;;;;;;;;;;;;;21.40;74.11;99922.13;5043859;28;20019;-62
2021/09/07 03:32:40;;;;;;;;;;;;;;;21.36;75.04;99911.84;5035574;28;20012;-61
2021/09/07 03:35:07;;;;;;;;;;;;;;;21.41;74.60;99918.09;5036786;28;19972;-61
2021/09/07 03:37:34;;;;;;;;;;;;;;;21.47;74.84;99919.47;5035636;28;20405;-62
2021/09/07 03:40:01;;;;;;;;;;;;;;;21.49;74.72;99919.88;5036762;28;19961;-64
2021/09/07 03:42:28;;;;;;;;;;;;;;;21.53;74.60;99905.78;5044872;28;19928;-65
2021/09/07 03:44:55;;;;;;;;;;;;;;;21.55;74.79;99919.63;5048579;28;19960;-64
2021/09/07 03:47:21;;;;;;;;;;;;;;;21.42;75.20;99916.88;5045363;28;19920;-65
2021/09/07 03:49:48;;;;;;;;;;;;;;;21.19;76.70;99913.84;5042635;28;20166;-65
2021/09/07 03:52:15;;;;;;;;;;;;;;;21.08;77.35;99914.78;5038956;28;20012;-64
2021/09/07 03:54:41;;;;;;;;;;;;;;;21.13;77.89;99915.34;5049195;28;19975;-64
2021/09/07 03:57:08;;;;;;;;;;;;;;;21.17;77.84;99915.44;5041915;28;20102;-64
2021/09/07 03:59:35;;;;;;;;;;;;;;;21.20;77.86;99920.38;5036698;28;20321;-64
2021/09/07 04:02:01;;;;;;;;;;;;;;;21.22;78.07;99917.97;5038349;28;19921;-64
2021/09/07 04:04:29;;;;;;;;;;;;;;;21.29;77.93;99912.47;5037204;28;19932;-64
2021/09/07 04:06:56;;;;;;;;;;;;;;;21.32;78.16;99911.75;5044881;28;19921;-63
2021/09/07 04:09:23;;;;;;;;;;;;;;;21.29;78.59;99906.78;5050205;28;19975;-65
2021/09/07 04:11:50;;;;;;;;;;;;;;;21.32;78.54;99905.25;5044732;28;20420;-65
2021/09/07 04:14:17;;;;;;;;;;;;;;;21.44;78.06;99908.81;5045933;28;20016;-66
2021/09/07 04:16:44;;;;;;;;;;;;;;;21.49;77.97;99910.56;5038839;28;20074;-66
2021/09/07 04:19:11;;;;;;;;;;;;;;;21.51;77.93;99908.19;5053498;28;20004;-65
2021/09/07 04:21:37;;;;;;;;;;;;;;;21.44;78.42;99914.50;5042756;28;20019;-62
2021/09/07 04:24:04;;;;;;;;;;;;;;;21.43;78.44;99906.34;5037570;28;19964;-61
2021/09/07 04:26:31;;;;;;;;;;;;;;;21.41;78.37;99903.88;5038832;28;20051;-62
2021/09/07 04:28:58;;;;;;;;;;;;;;;21.35;78.89;99908.19;5040010;28;19967;-62
2021/09/07 04:31:24;;;;;;;;;;;;;;;21.17;79.46;99915.44;5049476;28;20380;-61
2021/09/07 04:33:51;;;;;;;;;;;;;;;21.08;79.86;99906.28;5046165;28;20427;-61
2021/09/07 04:36:18;;;;;;;;;;;;;;;20.94;80.47;99924.59;5038522;28;20043;-62
2021/09/07 04:38:44;;;;;;;;;;;;;;;20.97;80.31;99901.16;5039674;28;20023;-62
2021/09/07 04:41:13;;;;;;;;;;;;;;;21.16;79.83;99925.13;5031583;28;19940;-61
2021/09/07 04:43:39;;;;;;;;;;;;;;;21.13;79.86;99905.97;5039211;28;20016;-60
2021/09/07 04:46:06;;;;;;;;;;;;;;;21.02;80.68;99906.53;5038974;28;20015;-61
2021/09/07 04:48:33;;;;;;;;;;;;;;;21.22;79.88;99903.78;5034369;28;19921;-61
2021/09/07 04:50:59;;;;;;;;;;;;;;;21.11;80.46;99900.69;5037366;28;20023;-63
2021/09/07 04:53:26;;;;;;;;;;;;;;;21.20;80.02;99914.69;5034409;28;20023;-63
2021/09/07 04:55:53;;;;;;;;;;;;;;;21.14;79.74;99910.50;5041446;28;19956;-63
2021/09/07 04:58:19;;;;;;;;;;;;;;;21.15;79.51;99918.63;5037604;28;20012;-63
2021/09/07 05:00:46;;;;;;;;;;;;;;;21.05;79.70;99913.50;5031962;28;19972;-63
2021/09/07 05:03:13;;;;;;;;;;;;;;;21.05;79.51;99928.50;5032529;28;19921;-62
2021/09/07 05:05:40;;;;;;;;;;;;;;;21.08;79.44;99929.00;5076775;28;20019;-63
2021/09/07 05:08:06;;;;;;;;;;;;;;;21.12;79.11;99919.34;5065844;28;19924;-63
2021/09/07 05:10:33;;;;;;;;;;;;;;;21.20;79.50;99926.88;5035730;28;20020;-63
2021/09/07 05:13:00;;;;;;;;;;;;;;;21.28;79.17;99933.56;5040228;28;20007;-63
2021/09/07 05:15:26;;;;;;;;;;;;;;;21.32;78.90;99928.78;5043295;28;19921;-66
2021/09/07 05:17:53;;;;;;;;;;;;;;;21.38;79.04;99933.03;5033885;28;19921;-74
2021/09/07 05:20:20;;;;;;;;;;;;;;;21.36;78.59;99918.34;5035161;28;19960;-73
2021/09/07 05:22:46;;;;;;;;;;;;;;;21.37;78.78;99920.03;5045813;28;20321;-66
2021/09/07 05:25:13;;;;;;;;;;;;;;;21.50;78.60;99927.25;5037504;28;20384;-66
2021/09/07 05:27:40;;;;;;;;;;;;;;;21.64;78.18;99935.28;5040912;28;19921;-66
2021/09/07 05:30:08;;;;;;;;;;;;;;;21.65;78.12;99936.91;5037365;28;20025;-65
2021/09/07 05:32:35;;;;;;;;;;;;;;;21.67;77.98;99940.19;5043320;28;19921;-62
2021/09/07 05:35:02;;;;;;;;;;;;;;;21.77;77.72;99938.78;5034246;28;20004;-63
2021/09/07 05:37:29;;;;;;;;;;;;;;;21.85;77.60;99939.81;5035875;28;19924;-63
2021/09/07 05:39:56;;;;;;;;;;;;;;;21.98;76.96;99942.13;5041385;28;20007;-63
2021/09/07 05:42:22;;;;;;;;;;;;;;;21.97;77.04;99949.00;5045065;28;20007;-71
2021/09/07 05:44:49;;;;;;;;;;;;;;;21.96;77.09;99947.34;5037092;28;19941;-65
2021/09/07 05:47:16;;;;;;;;;;;;;;;22.02;76.88;99945.06;5031629;28;19976;-68
2021/09/07 05:49:43;;;;;;;;;;;;;;;22.00;76.68;99942.56;5034715;28;19921;-70
2021/09/07 05:52:09;;;;;;;;;;;;;;;21.86;77.13;99950.78;5046087;28;20015;-70
2021/09/07 05:54:36;;;;;;;;;;;;;;;21.61;76.81;99896.22;5040627;28;20020;-69
2021/09/07 05:57:03;;;;;;;;;;;;;;;21.91;77.02;99961.03;5032436;28;19990;-61
2021/09/07 05:59:29;;;;;;;;;;;;;;;21.97;76.83;99962.41;5041645;28;19956;-69
2021/09/07 06:01:56;;;;;;;;;;;;;;;21.93;77.02;99945.25;5043095;28;20329;-64
2021/09/07 06:04:23;;;;;;;;;;;;;;;21.88;77.02;99954.09;5039101;28;19920;-69
2021/09/07 06:06:51;;;;;;;;;;;;;;;21.93;76.90;99959.47;5040654;28;20465;-69
2021/09/07 06:09:18;;;;;;;;;;;;;;;22.00;76.73;99953.13;5044233;28;19920;-69
2021/09/07 06:11:44;;;;;;;;;;;;;;;21.92;77.11;99955.00;5045223;28;19972;-69
2021/09/07 06:14:11;;;;;;;;;;;;;;;21.92;76.98;99952.16;5033547;28;19968;-68
2021/09/07 06:16:38;;;;;;;;;;;;;;;21.98;76.94;99950.66;5042227;28;20011;-71
2021/09/07 06:19:04;;;;;;;;;;;;;;;21.99;76.84;99948.63;5039102;28;19921;-71
2021/09/07 06:21:31;;;;;;;;;;;;;;;21.83;76.98;99943.00;5031754;28;20448;-71
2021/09/07 06:23:59;;;;;;;;;;;;;;;21.87;77.15;99948.75;5031483;28;19943;-71
2021/09/07 06:26:26;;;;;;;;;;;;;;;22.00;76.84;99945.41;5044464;28;20012;-70
2021/09/07 06:28:52;;;;;;;;;;;;;;;22.14;76.45;99975.34;5036023;28;19960;-70
2021/09/07 06:31:19;;;;;;;;;;;;;;;22.22;76.22;99962.97;5043860;28;20285;-70
2021/09/07 06:33:46;;;;;;;;;;;;;;;22.14;76.30;99970.50;5034646;28;19944;-67
2021/09/07 06:36:13;;;;;;;;;;;;;;;22.08;76.27;99977.66;5041582;28;20011;-70
2021/09/07 06:38:39;;;;;;;;;;;;;;;22.10;76.34;99983.81;5038058;28;20015;-71
2021/09/07 06:41:07;;;;;;;;;;;;;;;22.11;76.32;99987.47;5044473;28;19999;-69
2021/09/07 06:43:35;;;;;;;;;;;;;;;22.05;76.24;99975.59;5048854;28;20020;-68
2021/09/07 06:46:02;;;;;;;;;;;;;;;22.08;76.23;99997.56;5045787;28;19967;-68
2021/09/07 06:48:29;;;;;;;;;;;;;;;22.06;76.22;99985.75;5036974;28;19926;-70
2021/09/07 06:50:56;;;;;;;;;;;;;;;22.01;76.26;99989.69;5040307;28;19921;-70
2021/09/07 06:53:23;;;;;;;;;;;;;;;21.98;76.34;99993.31;5037654;28;19963;-70
2021/09/07 06:55:49;;;;;;;;;;;;;;;21.98;76.32;99990.47;5041193;28;20436;-72
2021/09/07 06:58:20;;;;;;;;;;;;;;;21.92;76.61;99991.94;5036694;28;20351;-71
2021/09/07 07:00:47;;;;;;;;;;;;;;;22.06;76.18;99996.31;5044526;28;20403;-69
2021/09/07 07:03:15;;;;;;;;;;;;;;;22.08;76.37;99999.59;5043827;28;20328;-71
2021/09/07 07:05:41;;;;;;;;;;;;;;;22.07;76.25;100009.31;5044900;28;20403;-70
2021/09/07 07:08:08;;;;;;;;;;;;;;;22.14;76.28;100000.94;5044731;28;20321;-71
2021/09/07 07:10:35;;;;;;;;;;;;;;;22.22;76.28;100008.47;5050071;28;19956;-70
2021/09/07 07:13:02;;;;;;;;;;;;;;;22.23;75.92;100010.13;5046572;28;19964;-70
2021/09/07 07:15:29;;;;;;;;;;;;;;;22.31;75.89;100011.94;5036597;28;20000;-70
2021/09/07 07:17:55;;;;;;;;;;;;;;;22.41;75.62;100014.19;5037782;28;19994;-69
2021/09/07 07:20:22;;;;;;;;;;;;;;;22.36;75.66;100023.03;5045102;28;20007;-69
2021/09/07 07:22:50;;;;;;;;;;;;;;;22.37;75.51;100016.13;5053531;28;19999;-70
2021/09/07 07:25:16;;;;;;;;;;;;;;;22.38;75.49;100022.63;5047999;28;19921;-69
2021/09/07 07:27:43;;;;;;;;;;;;;;;22.33;75.53;100029.44;5053540;28;19963;-69
2021/09/07 07:30:10;;;;;;;;;;;;;;;22.50;75.45;100016.00;5055098;28;20011;-70
2021/09/07 07:32:38;;;;;;;;;;;;;;;22.61;75.60;100025.56;5055309;28;19929;-69
2021/09/07 07:35:04;;;;;;;;;;;;;;;22.63;75.03;100026.84;5051180;28;20003;-69
2021/09/07 07:37:31;;;;;;;;;;;;;;;22.70;75.22;100029.00;5040499;28;19947;-69
2021/09/07 07:39:58;;;;;;;;;;;;;;;23.04;74.64;100034.97;5051120;28;19979;-69
2021/09/07 07:42:24;;;;;;;;;;;;;;;23.18;73.79;100036.09;5042791;28;19968;-69
2021/09/07 07:44:51;;;;;;;;;;;;;;;23.49;73.07;100028.50;5039477;28;20004;-69
2021/09/07 07:47:18;;;;;;;;;;;;;;;23.79;72.83;100037.13;5052892;28;19967;-69
2021/09/07 07:49:45;;;;;;;;;;;;;;;23.75;72.27;100039.13;5054822;28;20463;-69
2021/09/07 07:52:12;;;;;;;;;;;;;;;23.72;71.91;100037.03;5048581;28;20340;-69
2021/09/07 07:54:38;;;;;;;;;;;;;;;23.73;71.67;100033.00;5033713;28;19956;-69
2021/09/07 07:57:06;;;;;;;;;;;;;;;23.69;71.03;100037.78;5043689;28;20391;-66
2021/09/07 07:59:32;;;;;;;;;;;;;;;23.64;71.66;100040.94;5038383;28;19928;-66
2021/09/07 08:01:59;;;;;;;;;;;;;;;23.88;71.86;100043.41;5036583;28;19975;-66
2021/09/07 08:04:36;;;;;;;;;;;;;;;23.88;70.86;100039.75;5044862;28;20011;-66
2021/09/07 08:07:03;;;;;;;;;;;;;;;23.94;70.96;100043.09;5048647;28;19928;-66
2021/09/07 08:09:31;;;;;;;;;;;;;;;23.88;71.21;100057.66;5041253;28;19971;-65
2021/09/07 08:11:58;;;;;;;;;;;;;;;23.99;70.97;100057.00;5055147;28;19966;-65
2021/09/07 08:14:26;;;;;;;;;;;;;;;24.10;70.52;100060.84;5035905;28;20352;-65
2021/09/07 08:16:53;;;;;;;;;;;;;;;24.22;70.32;100054.91;5034604;28;19968;-66
2021/09/07 08:19:19;;;;;;;;;;;;;;;24.25;69.79;100053.34;5046690;28;20383;-66
2021/09/07 08:21:46;;;;;;;;;;;;;;;24.09;69.50;100062.06;5037019;28;20009;-66
2021/09/07 08:24:12;;;;;;;;;;;;;;;24.07;69.47;100062.47;5039110;28;19920;-69
2021/09/07 08:26:39;;;;;;;;;;;;;;;23.96;69.85;100066.34;5035043;28;20389;-70
2021/09/07 08:29:06;;;;;;;;;;;;;;;23.85;70.09;100072.69;5034574;28;20017;-70
2021/09/07 08:31:32;;;;;;;;;;;;;;;23.93;70.20;100067.94;5034807;28;19972;-69
2021/09/07 08:33:59;;;;;;;;;;;;;;;24.01;69.50;100083.13;5031325;28;20007;-70
2021/09/07 08:36:26;;;;;;;;;;;;;;;23.93;69.90;100076.50;5036136;28;20319;-70
2021/09/07 08:38:53;;;;;;;;;;;;;;;24.01;69.79;100071.72;5042297;28;20049;-71
2021/09/07 08:41:19;;;;;;;;;;;;;;;23.87;69.58;100061.72;5051870;28;19972;-70
2021/09/07 08:43:48;;;;;;;;;;;;;;;23.94;69.40;100060.22;5049197;28;20012;-69
2021/09/07 08:46:15;;;;;;;;;;;;;;;23.98;69.31;100083.91;5051469;28;19959;-69
2021/09/07 08:48:44;;;;;;;;;;;;;;;24.05;69.22;100090.53;5036791;28;19921;-68
2021/09/07 08:51:14;;;;;;;;;;;;;;;24.07;69.25;100075.91;5040024;28;19956;-69
2021/09/07 08:53:43;;;;;;;;;;;;;;;23.93;69.50;100073.66;5034458;28;20411;-69
2021/09/07 08:56:10;;;;;;;;;;;;;;;23.65;69.73;100089.00;5052054;28;20460;-69
2021/09/07 08:58:37;;;;;;;;;;;;;;;23.34;70.46;100083.56;5034522;28;20000;-69
2021/09/07 09:01:14;;;;;;;;;;;;;;;23.19;71.42;100079.63;5037508;28;19995;-70
2021/09/07 09:03:42;;;;;;;;;;;;;;;23.11;71.81;100086.38;5040430;28;19920;-69
2021/09/07 09:06:10;;;;;;;;;;;;;;;23.14;72.08;100085.63;5077407;28;19920;-69
2021/09/07 09:08:37;;;;;;;;;;;;;;;23.25;71.93;100089.53;5034594;28;20432;-70
2021/09/07 09:11:08;;;;;;;;;;;;;;;23.69;71.49;100096.84;5034208;28;19964;-70
2021/09/07 09:13:41;;;;;;;;;;;;;;;23.84;71.46;100105.25;5033915;28;20007;-68
2021/09/07 09:16:12;;;;;;;;;;;;;;;23.84;71.26;100108.13;5036671;28;19961;-69
2021/09/07 09:18:40;;;;;;;;;;;;;;;24.06;70.58;100105.59;5033327;28;19921;-68
2021/09/07 09:21:27;;;;;;;;;;;;;;;24.42;69.55;100111.91;5038839;28;19963;-71
2021/09/07 09:24:13;;;;;;;;;;;;;;;24.68;69.13;100119.59;5043612;28;19924;-69
2021/09/07 09:26:48;;;;;;;;;;;;;;;24.89;68.69;100116.19;5035266;28;19925;-70
2021/09/07 09:29:20;;;;;;;;;;;;;;;25.17;68.64;100115.78;5033376;28;20369;-70
2021/09/07 09:31:51;;;;;;;;;;;;;;;25.35;66.89;100127.41;5036562;28;20008;-70
2021/09/07 09:34:17;;;;;;;;;;;;;;;25.17;67.28;100108.03;5040857;28;19968;-69
2021/09/07 09:37:01;;;;;;;;;;;;;;;25.05;66.92;100126.22;5042668;28;20428;-69
2021/09/07 09:39:47;;;;;;;;;;;;;;;24.97;66.65;100130.19;5037465;28;20004;-69
2021/09/07 09:42:26;;;;;;;;;;;;;;;24.80;66.88;100125.09;5046517;28;19920;-68
2021/09/07 09:45:03;;;;;;;;;;;;;;;24.88;66.72;100120.28;5051712;28;20303;-68
2021/09/07 09:47:43;;;;;;;;;;;;;;;24.71;66.85;100133.91;5038770;28;19931;-69
2021/09/07 09:50:11;;;;;;;;;;;;;;;24.95;66.87;100131.78;5044976;28;20457;-69
2021/09/07 09:52:41;;;;;;;;;;;;;;;25.00;66.92;100132.28;5043321;28;19966;-69
2021/09/07 09:55:10;;;;;;;;;;;;;;;25.14;66.41;100136.56;5037647;28;19921;-69
2021/09/07 09:57:37;;;;;;;;;;;;;;;25.20;66.67;100137.88;5031639;28;20012;-69
2021/09/07 10:00:05;;;;;;;;;;;;;;;25.41;66.66;100143.00;5030991;28;19928;-69
2021/09/07 10:02:32;;;;;;;;;;;;;;;25.55;65.90;100154.59;5032404;28;20043;-69
2021/09/07 10:04:59;;;;;;;;;;;;;;;25.36;66.27;100146.19;5041904;28;19967;-69
2021/09/07 10:07:26;;;;;;;;;;;;;;;25.43;65.78;100140.56;5032198;28;19982;-69
2021/09/07 10:09:53;;;;;;;;;;;;;;;25.91;65.76;100154.97;5043189;28;19960;-69
2021/09/07 10:12:33;;;;;;;;;;;;;;;25.90;64.57;100147.59;5052201;28;20015;-69
2021/09/07 10:15:09;;;;;;;;;;;;;;;26.03;65.25;100143.22;5042809;28;20112;-69
2021/09/07 10:17:46;;;;;;;;;;;;;;;26.62;65.15;100155.53;5032833;28;20004;-69
2021/09/07 10:20:36;;;;;;;;;;;;;;;26.77;64.47;100144.16;5032263;28;19929;-70
2021/09/07 10:25:44;;;;;;;;;;;;;;;26.38;64.46;100159.03;5036036;28;19967;-69
2021/09/07 10:28:12;;;;;;;;;;;;;;;26.09;64.66;100153.09;5044027;28;20439;-69
2021/09/07 10:31:00;;;;;;;;;;;;;;;25.80;64.08;100140.56;5046700;28;20023;-69
2021/09/07 10:33:27;;;;;;;;;;;;;;;25.69;64.82;100159.63;5034250;28;19921;-69
2021/09/07 10:36:17;;;;;;;;;;;;;;;25.79;64.32;100158.09;5052227;28;20328;-70
2021/09/07 10:38:45;;;;;;;;;;;;;;;25.86;64.13;100155.34;5036248;28;19920;-70
2021/09/07 10:41:31;;;;;;;;;;;;;;;25.86;64.45;100161.88;5050817;28;20442;-70
2021/09/07 10:43:57;;;;;;;;;;;;;;;26.48;64.90;100158.31;5051946;28;20331;-70
2021/09/07 10:46:43;;;;;;;;;;;;;;;26.99;64.71;100151.66;5033077;28;19936;-69
2021/09/07 10:49:13;;;;;;;;;;;;;;;26.86;63.71;100153.22;5032288;28;19968;-69
2021/09/07 10:51:58;;;;;;;;;;;;;;;26.61;62.42;100168.22;5064360;28;19957;-70
2021/09/07 10:54:25;;;;;;;;;;;;;;;26.68;63.48;100159.69;5032759;28;20012;-70
2021/09/07 10:56:56;;;;;;;;;;;;;;;26.77;63.04;100161.34;5049500;28;19920;-70
2021/09/07 10:59:41;;;;;;;;;;;;;;;26.88;63.31;100148.75;5050621;28;20039;-70
2021/09/07 11:02:43;;;;;;;;;;;;;;;26.60;62.51;100180.91;5031583;28;19936;-69
2021/09/07 11:05:12;;;;;;;;;;;;;;;26.41;62.57;100166.81;5032440;28;19924;-69
2021/09/07 11:07:42;;;;;;;;;;;;;;;26.46;62.26;100160.72;5031885;28;20347;-70
2021/09/07 11:10:18;;;;;;;;;;;;;;;26.31;62.48;100173.28;5035411;28;19975;-69
2021/09/07 11:12:52;;;;;;;;;;;;;;;26.13;62.78;100167.44;5031947;28;19929;-70
2021/09/07 11:15:20;;;;;;;;;;;;;;;26.01;62.76;100168.53;5031977;28;19921;-71
2021/09/07 11:17:50;;;;;;;;;;;;;;;25.89;62.78;100174.56;5025949;28;19921;-68
2021/09/07 11:20:18;;;;;;;;;;;;;;;26.08;62.91;100177.19;5050442;28;20015;-68
2021/09/07 11:22:44;;;;;;;;;;;;;;;26.14;62.85;100175.59;5051536;28;20015;-69
2021/09/07 11:25:12;;;;;;;;;;;;;;;26.00;62.85;100172.63;5048036;28;19982;-69
2021/09/07 11:27:53;;;;;;;;;;;;;;;25.84;62.97;100170.00;5051488;28;20453;-70
2021/09/07 11:30:35;;;;;;;;;;;;;;;26.50;63.28;100170.19;5051581;28;19968;-68
2021/09/07 11:33:01;;;;;;;;;;;;;;;26.83;62.64;100168.34;5038357;28;19963;-67
2021/09/07 11:35:29;;;;;;;;;;;;;;;27.29;62.03;100165.75;5050751;28;19952;-68
2021/09/07 11:38:00;;;;;;;;;;;;;;;27.57;61.52;100170.72;5037845;28;20007;-69
2021/09/07 11:40:27;;;;;;;;;;;;;;;27.75;60.58;100167.06;5031984;28;19936;-69
2021/09/07 11:42:54;;;;;;;;;;;;;;;28.20;59.63;100161.81;5033034;28;20004;-69
2021/09/07 11:45:28;;;;;;;;;;;;;;;28.17;59.00;100174.13;5034883;28;20012;-69
2021/09/07 11:47:56;;;;;;;;;;;;;;;27.77;59.22;100174.09;5034888;28;19978;-70
2021/09/07 11:50:31;;;;;;;;;;;;;;;27.63;59.45;100169.13;5045089;28;19967;-67
2021/09/07 11:52:58;;;;;;;;;;;;;;;27.59;59.45;100174.03;5034958;28;20008;-67
2021/09/07 11:56:03;;;;;;;;;;;;;;;27.68;58.92;100170.75;5034700;28;20000;-64
2021/09/07 11:58:40;;;;;;;;;;;;;;;28.23;57.99;100175.34;5044603;28;19928;-65
2021/09/07 12:01:11;;;;;;;;;;;;;;;27.87;58.28;100166.72;5050460;28;19964;-64
2021/09/07 12:03:41;;;;;;;;;;;;;;;27.70;58.42;100167.50;5047311;28;20032;-64
2021/09/07 12:06:08;;;;;;;;;;;;;;;27.65;58.32;100172.38;5053049;28;20227;-64
2021/09/07 12:08:48;;;;;;;;;;;;;;;28.70;56.81;100161.78;5048741;28;20032;-64
2021/09/07 12:11:21;;;;;;;;;;;;;;;29.66;54.17;100169.25;5042818;28;20008;-64
2021/09/07 12:14:05;;;;;;;;;;;;;;;30.54;52.22;100161.16;5046226;28;19921;-64
2021/09/07 12:16:34;;;;;;;;;;;;;;;31.46;50.44;100157.69;5034851;28;20007;-64
2021/09/07 12:19:19;;;;;;;;;;;;;;;31.06;49.91;100166.78;5033337;28;19929;-64
2021/09/07 12:21:46;;;;;;;;;;;;;;;31.63;49.55;100159.50;5047758;28;20003;-64
2021/09/07 12:24:14;;;;;;;;;;;;;;;32.35;47.05;100167.03;5036292;28;20126;-64
2021/09/07 12:26:42;;;;;;;;;;;;;;;30.59;50.23;100162.75;5034129;28;19975;-64
2021/09/07 12:29:16;;;;;;;;;;;;;;;29.72;51.56;100164.69;5034089;28;19987;-65
2021/09/07 12:31:43;;;;;;;;;;;;;;;29.28;52.16;100161.19;5034553;28;20415;-64
2021/09/07 12:34:10;;;;;;;;;;;;;;;30.34;50.00;100151.50;5041308;28;19971;-64
2021/09/07 12:36:44;;;;;;;;;;;;;;;32.09;46.89;100152.19;5053925;28;20572;-64
2021/09/07 12:39:11;;;;;;;;;;;;;;;32.59;45.83;100151.34;5033592;28;20024;-65
2021/09/07 12:41:38;;;;;;;;;;;;;;;32.59;46.01;100157.13;5033505;28;19968;-64
2021/09/07 12:44:05;;;;;;;;;;;;;;;32.47;45.61;100160.66;5033789;28;20015;-65
2021/09/07 12:46:31;;;;;;;;;;;;;;;31.97;45.46;100165.19;5033682;28;19968;-65
2021/09/07 12:48:58;;;;;;;;;;;;;;;32.45;44.53;100164.00;5033653;28;19991;-64
2021/09/07 12:51:25;;;;;;;;;;;;;;;32.54;43.80;100157.63;5033596;28;20024;-64
2021/09/07 12:53:57;;;;;;;;;;;;;;;30.93;46.94;100159.94;5033300;28;20032;-64